Time;durP1;ratioP1;P1;durP2;ratioP2;P2;SDS_P1;SDS_P2;PMS_P1;PMS_P2;Temp;Humidity;BMP_temperature;BMP_pressure;BME280_temperature;BME280_humidity;BME280_pressure;Samples;Min_cycle;Max_cycle;Signal;HPM_P1;HPM_P2
2022/06/28 00:01:26;;;;;;;5.37;3.97;;;;;14.10;101503.00;;;;4897703;29;20234;-67
2022/06/28 00:04:13;;;;;;;6.87;4.10;;;;;14.10;101505.00;;;;4909152;28;20285;-68
2022/06/28 00:06:59;;;;;;;4.90;3.83;;;;;14.10;101504.00;;;;4892635;29;20410;-68
2022/06/28 00:09:45;;;;;;;5.97;3.93;;;;;14.00;101497.00;;;;4896612;29;20844;-66
2022/06/28 00:12:32;;;;;;;4.83;3.90;;;;;14.00;101497.00;;;;4907726;29;20245;-67
2022/06/28 00:18:24;;;;;;;6.73;4.10;;;;;14.00;101487.00;;;;4925415;29;20232;-67
2022/06/28 00:21:11;;;;;;;5.70;3.97;;;;;14.00;101495.00;;;;4925034;29;20257;-67
2022/06/28 00:23:57;;;;;;;9.53;4.67;;;;;13.90;101485.00;;;;4926682;29;20240;-67
2022/06/28 00:26:44;;;;;;;6.80;4.93;;;;;14.00;101485.00;;;;4929858;29;20386;-69
2022/06/28 00:29:30;;;;;;;7.10;4.60;;;;;13.90;101490.00;;;;4926272;29;20228;-67
2022/06/28 00:32:16;;;;;;;6.33;4.63;;;;;13.90;101491.00;;;;4920855;29;20419;-66
2022/06/28 00:35:05;;;;;;;6.60;4.20;;;;;13.80;101490.00;;;;4926364;29;20293;-67
2022/06/28 00:37:51;;;;;;;5.83;4.30;;;;;13.80;101490.00;;;;4931004;29;20248;-65
2022/06/28 00:40:44;;;;;;;5.17;4.17;;;;;13.70;101491.00;;;;4930058;29;20240;-66
2022/06/28 00:43:30;;;;;;;8.20;4.60;;;;;13.60;101490.00;;;;4929251;29;20232;-69
2022/06/28 00:46:16;;;;;;;7.47;4.70;;;;;13.60;101501.00;;;;4931331;29;20245;-69
2022/06/28 00:49:04;;;;;;;6.93;4.47;;;;;13.60;101499.00;;;;4927649;29;20714;-67
2022/06/28 00:51:52;;;;;;;7.10;4.93;;;;;13.60;101498.00;;;;4929741;29;20233;-68
2022/06/28 00:54:39;;;;;;;8.70;5.30;;;;;13.60;101495.00;;;;4930036;29;20310;-68
2022/06/28 00:57:25;;;;;;;8.00;4.90;;;;;13.40;101498.00;;;;4930416;29;20236;-66
2022/06/28 01:00:12;;;;;;;11.13;5.50;;;;;13.40;101489.00;;;;4929326;29;20300;-65
2022/06/28 01:03:00;;;;;;;6.93;5.07;;;;;13.20;101500.00;;;;4924297;29;20860;-65
2022/06/28 01:05:47;;;;;;;6.93;4.97;;;;;13.30;101502.00;;;;4928188;29;20232;-68
2022/06/28 01:08:35;;;;;;;7.57;5.27;;;;;13.30;101510.00;;;;4929958;28;20746;-68
2022/06/28 01:11:21;;;;;;;6.77;4.93;;;;;13.30;101505.00;;;;4908086;29;20976;-65
2022/06/28 01:14:08;;;;;;;8.60;5.30;;;;;13.20;101505.00;;;;4904817;29;20240;-68
2022/06/28 01:16:55;;;;;;;7.43;4.27;;;;;13.30;101513.00;;;;4898686;29;20735;-67
2022/06/28 01:19:41;;;;;;;7.43;5.47;;;;;13.20;101508.00;;;;4907573;29;20824;-67
2022/06/28 01:22:30;;;;;;;6.60;4.53;;;;;13.00;101504.00;;;;4892585;29;20254;-66
2022/06/28 01:25:17;;;;;;;7.33;5.00;;;;;13.10;101510.00;;;;4913312;29;20355;-67
2022/06/28 01:28:06;;;;;;;9.53;4.80;;;;;13.10;101506.00;;;;4891392;29;20720;-68
2022/06/28 01:30:54;;;;;;;6.80;4.87;;;;;13.10;101507.00;;;;4894737;29;20627;-70
2022/06/28 01:33:41;;;;;;;8.23;5.23;;;;;13.10;101516.00;;;;4904865;29;20318;-71
2022/06/28 01:36:27;;;;;;;8.90;5.30;;;;;13.00;101519.00;;;;4893633;29;20233;-68
2022/06/28 01:39:14;;;;;;;6.73;4.93;;;;;13.00;101526.00;;;;4895970;29;20230;-67
2022/06/28 01:42:02;;;;;;;6.90;5.13;;;;;12.90;101522.00;;;;4915116;29;20253;-67
2022/06/28 01:44:50;;;;;;;6.50;4.53;;;;;13.00;101526.00;;;;4918528;29;20240;-66
2022/06/28 01:47:38;;;;;;;9.77;4.97;;;;;13.00;101527.00;;;;4918215;29;20249;-68
2022/06/28 01:50:24;;;;;;;8.33;5.13;;;;;13.00;101526.00;;;;4920115;29;20235;-66
2022/06/28 01:53:11;;;;;;;7.23;4.87;;;;;12.90;101533.00;;;;4920616;29;20233;-67
2022/06/28 01:55:57;;;;;;;7.17;5.07;;;;;12.90;101541.00;;;;4924006;29;20235;-67
2022/06/28 01:58:45;;;;;;;5.87;4.47;;;;;12.90;101548.00;;;;4921544;29;20240;-66
2022/06/28 02:01:31;;;;;;;6.63;4.77;;;;;12.80;101541.00;;;;4927723;29;20236;-66
2022/06/28 02:04:18;;;;;;;7.13;4.40;;;;;12.70;101546.00;;;;4928724;29;20305;-66
2022/06/28 02:07:05;;;;;;;7.67;5.10;;;;;12.70;101552.00;;;;4929005;29;20233;-68
2022/06/28 02:09:51;;;;;;;6.97;4.67;;;;;12.70;101546.00;;;;4927314;29;20228;-68
2022/06/28 02:12:38;;;;;;;6.43;4.37;;;;;12.70;101557.00;;;;4929597;29;20244;-66
2022/06/28 02:15:26;;;;;;;8.73;5.10;;;;;12.60;101552.00;;;;4928470;29;20987;-67
2022/06/28 02:18:12;;;;;;;9.00;4.70;;;;;12.50;101541.00;;;;4923011;29;20240;-67
2022/06/28 02:20:58;;;;;;;8.50;4.30;;;;;12.60;101554.00;;;;4924857;29;20864;-65
2022/06/28 02:23:45;;;;;;;7.80;4.47;;;;;12.50;101547.00;;;;4913813;29;20256;-68
2022/06/28 02:26:32;;;;;;;6.67;4.60;;;;;12.50;101547.00;;;;4921576;29;20228;-67
2022/06/28 02:29:19;;;;;;;6.43;4.90;;;;;12.50;101555.00;;;;4925352;28;20236;-69
2022/06/28 02:32:08;;;;;;;8.90;4.77;;;;;12.50;101553.00;;;;4907233;29;20237;-67
2022/06/28 02:41:02;;;;;;;6.20;4.53;;;;;12.50;101562.00;;;;4905140;29;20239;-67
2022/06/28 02:43:49;;;;;;;7.57;5.17;;;;;12.50;101555.00;;;;4897898;29;20244;-69
2022/06/28 02:46:35;;;;;;;8.47;5.13;;;;;12.50;101561.00;;;;4910807;29;20396;-68
2022/06/28 02:49:23;;;;;;;9.40;5.47;;;;;12.50;101559.00;;;;4912418;29;20248;-67
2022/06/28 02:52:10;;;;;;;7.27;4.83;;;;;12.60;101560.00;;;;4926054;28;20248;-65
2022/06/28 02:54:56;;;;;;;8.30;5.20;;;;;12.60;101569.00;;;;4896273;29;20230;-67
2022/06/28 02:57:44;;;;;;;6.90;4.93;;;;;12.50;101575.00;;;;4900738;29;20593;-66
2022/06/28 03:00:31;;;;;;;7.90;5.27;;;;;12.50;101574.00;;;;4896452;29;20229;-67
2022/06/28 03:03:18;;;;;;;8.93;5.80;;;;;12.50;101564.00;;;;4897782;29;20809;-68
2022/06/28 03:06:06;;;;;;;8.27;5.30;;;;;12.50;101565.00;;;;4900296;29;20250;-69
2022/06/28 03:08:52;;;;;;;9.43;5.87;;;;;12.50;101562.00;;;;4895531;29;20249;-67
2022/06/28 03:11:39;;;;;;;9.53;5.47;;;;;12.50;101568.00;;;;4892270;29;20237;-66
2022/06/28 03:14:25;;;;;;;10.10;5.60;;;;;12.40;101571.00;;;;4896067;29;20366;-69
2022/06/28 03:17:12;;;;;;;7.40;4.87;;;;;12.50;101572.00;;;;4898396;29;20237;-65
2022/06/28 03:19:58;;;;;;;6.83;4.83;;;;;12.50;101567.00;;;;4901459;29;20295;-65
2022/06/28 03:22:46;;;;;;;9.47;5.63;;;;;12.50;101578.00;;;;4908407;29;20240;-65
2022/06/28 03:25:32;;;;;;;7.10;5.30;;;;;12.50;101583.00;;;;4900676;29;20275;-66
2022/06/28 03:28:19;;;;;;;10.03;5.17;;;;;12.50;101584.00;;;;4894672;29;20253;-67
2022/06/28 03:31:11;;;;;;;6.40;4.77;;;;;12.50;101584.00;;;;4906534;28;20333;-68
2022/06/28 03:33:57;;;;;;;9.67;5.07;;;;;12.50;101589.00;;;;4919745;29;20280;-67
2022/06/28 03:36:43;;;;;;;7.73;5.20;;;;;12.50;101587.00;;;;4925512;29;20234;-68
2022/06/28 03:39:31;;;;;;;7.13;5.10;;;;;12.50;101587.00;;;;4911110;29;20308;-68
2022/06/28 03:42:17;;;;;;;10.67;5.13;;;;;12.60;101594.00;;;;4900220;28;20253;-64
2022/06/28 03:45:04;;;;;;;8.67;5.87;;;;;12.70;101595.00;;;;4917670;28;20232;-67
2022/06/28 03:47:51;;;;;;;8.33;5.00;;;;;12.70;101601.00;;;;4920284;28;20720;-66
2022/06/28 03:50:37;;;;;;;6.93;5.07;;;;;12.60;101595.00;;;;4924067;28;20367;-67
2022/06/28 03:53:23;;;;;;;8.37;5.23;;;;;12.70;101599.00;;;;4924435;28;20237;-65
2022/06/28 03:56:11;;;;;;;8.67;5.67;;;;;12.70;101598.00;;;;4923451;29;20239;-61
2022/06/28 03:58:57;;;;;;;8.93;5.27;;;;;12.80;101597.00;;;;4921059;29;20232;-67
2022/06/28 04:01:44;;;;;;;12.83;5.80;;;;;12.90;101595.00;;;;4923776;28;20238;-65
2022/06/28 04:04:30;;;;;;;8.07;5.10;;;;;12.90;101599.00;;;;4913036;29;20252;-67
2022/06/28 04:07:16;;;;;;;9.23;5.40;;;;;12.80;101612.00;;;;4911494;28;20282;-65
2022/06/28 04:10:02;;;;;;;10.00;5.10;;;;;12.90;101618.00;;;;4900562;29;20241;-63
2022/06/28 04:12:50;;;;;;;8.43;5.07;;;;;12.90;101612.00;;;;4906630;29;20273;-65
2022/06/28 04:15:37;;;;;;;8.63;5.63;;;;;13.00;101601.00;;;;4912731;29;20621;-67
2022/06/28 04:18:24;;;;;;;8.90;5.23;;;;;13.00;101615.00;;;;4911579;29;20715;-66
2022/06/28 04:21:11;;;;;;;8.90;4.93;;;;;13.00;101604.00;;;;4924204;28;21046;-66
2022/06/28 04:23:57;;;;;;;9.43;5.83;;;;;13.10;101608.00;;;;4922584;28;20987;-66
2022/06/28 04:26:43;;;;;;;6.53;5.03;;;;;13.00;101613.00;;;;4909648;28;20264;-68
2022/06/28 04:29:31;;;;;;;7.97;5.77;;;;;13.10;101598.00;;;;4924017;28;20502;-65
2022/06/28 04:32:17;;;;;;;6.70;4.80;;;;;13.20;101597.00;;;;4904137;28;20247;-68
2022/06/28 04:35:04;;;;;;;7.00;5.07;;;;;13.20;101605.00;;;;4906493;29;20246;-66
2022/06/28 04:37:50;;;;;;;8.90;4.83;;;;;13.20;101607.00;;;;4908020;29;20241;-67
2022/06/28 04:40:37;;;;;;;8.60;5.13;;;;;13.30;101613.00;;;;4905913;29;20233;-64
2022/06/28 04:43:23;;;;;;;5.63;4.53;;;;;13.40;101625.00;;;;4891225;29;20318;-68
2022/06/28 04:46:10;;;;;;;7.60;5.07;;;;;13.40;101613.00;;;;4901067;29;20362;-67
2022/06/28 04:48:56;;;;;;;9.97;5.50;;;;;13.50;101608.00;;;;4896357;29;20241;-68
2022/06/28 04:51:43;;;;;;;7.40;5.27;;;;;13.60;101612.00;;;;4898291;29;20382;-68
2022/06/28 04:54:29;;;;;;;8.80;5.60;;;;;13.60;101605.00;;;;4889391;29;20233;-63
2022/06/28 04:57:15;;;;;;;8.00;5.67;;;;;13.70;101619.00;;;;4891876;29;20238;-66
2022/06/28 05:00:02;;;;;;;7.97;5.43;;;;;13.80;101620.00;;;;4900079;29;20233;-68
2022/06/28 05:02:50;;;;;;;10.23;5.70;;;;;13.80;101616.00;;;;4903605;29;20242;-65
2022/06/28 05:05:36;;;;;;;9.73;5.70;;;;;13.90;101629.00;;;;4898815;29;20304;-67
2022/06/28 05:08:22;;;;;;;8.47;5.47;;;;;14.00;101626.00;;;;4906317;29;20253;-65
2022/06/28 05:11:09;;;;;;;9.53;5.90;;;;;14.10;101619.00;;;;4893967;29;20820;-68
2022/06/28 05:13:55;;;;;;;12.73;5.30;;;;;14.20;101617.00;;;;4895326;29;20302;-69
2022/06/28 05:16:42;;;;;;;8.00;5.67;;;;;14.30;101626.00;;;;4898104;29;20230;-68
2022/06/28 05:19:31;;;;;;;7.93;5.47;;;;;14.30;101616.00;;;;4909341;29;20241;-66
2022/06/28 05:22:17;;;;;;;10.50;6.17;;;;;14.30;101623.00;;;;4907798;28;20261;-70
2022/06/28 05:25:04;;;;;;;9.80;6.40;;;;;14.50;101613.00;;;;4902403;29;20233;-68
2022/06/28 05:27:51;;;;;;;16.43;6.20;;;;;14.60;101622.00;;;;4913864;29;20238;-69
2022/06/28 05:30:37;;;;;;;8.53;5.90;;;;;14.80;101617.00;;;;4902214;29;20240;-66
2022/06/28 05:33:23;;;;;;;9.10;5.97;;;;;14.80;101623.00;;;;4918463;29;20285;-67
2022/06/28 05:36:11;;;;;;;11.33;6.17;;;;;14.90;101615.00;;;;4923446;29;20244;-66
2022/06/28 05:38:57;;;;;;;14.60;6.57;;;;;15.00;101626.00;;;;4929179;29;20342;-68
2022/06/28 05:41:43;;;;;;;9.07;5.90;;;;;15.00;101629.00;;;;4919522;29;20774;-67
2022/06/28 05:44:29;;;;;;;9.73;5.83;;;;;15.10;101630.00;;;;4917216;29;20291;-69
2022/06/28 05:47:16;;;;;;;10.33;5.90;;;;;15.20;101626.00;;;;4926644;29;20245;-68
2022/06/28 05:50:02;;;;;;;8.73;6.03;;;;;15.30;101631.00;;;;4901726;29;20238;-69
2022/06/28 05:52:51;;;;;;;8.90;6.03;;;;;15.50;101629.00;;;;4897263;29;20242;-70
2022/06/28 05:55:37;;;;;;;8.87;5.70;;;;;15.50;101629.00;;;;4904611;29;20383;-68
2022/06/28 05:58:23;;;;;;;11.80;5.97;;;;;15.60;101630.00;;;;4902194;29;20286;-65
2022/06/28 06:01:10;;;;;;;9.23;5.80;;;;;15.60;101637.00;;;;4902356;29;20366;-69
2022/06/28 06:03:57;;;;;;;10.07;5.90;;;;;15.70;101627.00;;;;4904223;29;20608;-67
2022/06/28 06:06:44;;;;;;;12.57;5.73;;;;;15.70;101632.00;;;;4902711;29;20238;-67
2022/06/28 06:09:31;;;;;;;9.27;6.00;;;;;15.80;101625.00;;;;4896080;29;20226;-68
2022/06/28 06:12:17;;;;;;;9.73;5.50;;;;;15.80;101621.00;;;;4909467;29;20297;-70
2022/06/28 06:15:05;;;;;;;9.67;5.47;;;;;15.90;101626.00;;;;4904807;28;20260;-70
2022/06/28 06:17:51;;;;;;;9.53;5.30;;;;;15.90;101637.00;;;;4927810;28;20259;-66
2022/06/28 06:20:38;;;;;;;8.47;5.40;;;;;15.90;101633.00;;;;4914098;29;20242;-67
2022/06/28 06:23:24;;;;;;;10.10;5.37;;;;;16.00;101640.00;;;;4909103;29;20257;-70
2022/06/28 06:26:12;;;;;;;11.73;5.90;;;;;16.10;101642.00;;;;4904332;28;20707;-69
2022/06/28 06:28:58;;;;;;;16.67;6.13;;;;;16.10;101640.00;;;;4915100;29;20238;-69
2022/06/28 06:31:44;;;;;;;9.53;5.40;;;;;16.10;101652.00;;;;4901270;29;20348;-71
2022/06/28 06:34:31;;;;;;;15.40;5.67;;;;;16.20;101645.00;;;;4925598;29;20261;-67
2022/06/28 06:37:17;;;;;;;7.23;4.83;;;;;16.20;101655.00;;;;4924239;29;20234;-69
2022/06/28 06:40:04;;;;;;;9.97;5.30;;;;;16.30;101649.00;;;;4922192;28;20252;-65
2022/06/28 06:42:51;;;;;;;9.87;5.30;;;;;16.50;101661.00;;;;4927167;29;20246;-69
2022/06/28 06:45:38;;;;;;;7.70;4.90;;;;;16.50;101657.00;;;;4927740;29;20745;-68
2022/06/28 06:48:24;;;;;;;10.47;4.20;;;;;16.50;101655.00;;;;4927761;29;20305;-68
2022/06/28 06:51:11;;;;;;;8.67;4.07;;;;;16.50;101656.00;;;;4928339;28;20318;-69
2022/06/28 06:53:58;;;;;;;7.07;3.93;;;;;16.50;101647.00;;;;4929117;29;20251;-69
2022/06/28 06:56:46;;;;;;;7.67;4.30;;;;;16.60;101655.00;;;;4922725;29;20229;-68
2022/06/28 06:59:34;;;;;;;7.30;4.20;;;;;16.70;101651.00;;;;4928401;29;20739;-69
2022/06/28 07:02:20;;;;;;;9.57;4.33;;;;;16.70;101652.00;;;;4917684;29;20311;-66
2022/06/28 07:05:07;;;;;;;8.93;3.93;;;;;16.90;101654.00;;;;4922289;29;20242;-67
2022/06/28 07:07:54;;;;;;;7.00;4.13;;;;;16.90;101659.00;;;;4920020;29;20246;-67
2022/06/28 07:10:40;;;;;;;6.20;4.07;;;;;16.90;101656.00;;;;4926963;29;20330;-69
2022/06/28 07:13:26;;;;;;;7.10;4.17;;;;;17.00;101652.00;;;;4927689;29;20237;-67
2022/06/28 07:16:14;;;;;;;9.37;4.37;;;;;17.00;101651.00;;;;4924281;29;20247;-71
2022/06/28 07:19:00;;;;;;;7.40;3.30;;;;;17.10;101652.00;;;;4928589;28;20237;-67
2022/06/28 07:21:46;;;;;;;5.87;3.33;;;;;17.20;101646.00;;;;4926003;29;20376;-72
2022/06/28 07:24:33;;;;;;;9.00;3.40;;;;;17.20;101648.00;;;;4930878;29;20326;-70
2022/06/28 07:27:19;;;;;;;6.60;3.13;;;;;17.40;101645.00;;;;4924157;29;20233;-70
2022/06/28 07:30:06;;;;;;;4.80;2.87;;;;;17.40;101648.00;;;;4924336;29;20307;-68
2022/06/28 07:32:53;;;;;;;4.90;2.60;;;;;17.30;101659.00;;;;4925516;29;20239;-69
2022/06/28 07:35:40;;;;;;;5.93;3.67;;;;;17.40;101655.00;;;;4927100;29;20818;-68
2022/06/28 07:38:29;;;;;;;5.80;3.20;;;;;17.60;101658.00;;;;4924041;29;20249;-69
2022/06/28 07:41:15;;;;;;;4.47;2.50;;;;;17.60;101661.00;;;;4918831;29;20342;-71
2022/06/28 07:44:02;;;;;;;7.57;3.20;;;;;17.70;101651.00;;;;4900897;29;20369;-70
2022/06/28 07:46:48;;;;;;;6.80;2.90;;;;;17.80;101646.00;;;;4901991;29;20850;-69
2022/06/28 07:52:40;;;;;;;7.27;3.10;;;;;18.00;101641.00;;;;4926897;28;20251;-67
2022/06/28 07:55:26;;;;;;;5.07;2.77;;;;;18.00;101647.00;;;;4926238;28;20746;-69
2022/06/28 07:58:12;;;;;;;6.93;3.00;;;;;18.10;101646.00;;;;4907631;28;20621;-69
2022/06/28 08:00:59;;;;;;;4.53;2.40;;;;;18.30;101644.00;;;;4904305;29;20618;-70
2022/06/28 08:03:45;;;;;;;8.37;3.43;;;;;18.30;101640.00;;;;4899236;29;20237;-69
2022/06/28 08:06:33;;;;;;;3.97;2.00;;;;;18.50;101630.00;;;;4901694;29;20241;-68
2022/06/28 08:09:20;;;;;;;4.63;1.90;;;;;18.60;101631.00;;;;4900574;29;20301;-71
2022/06/28 08:12:08;;;;;;;4.00;1.80;;;;;18.70;101624.00;;;;4901807;29;20414;-68
2022/06/28 08:14:54;;;;;;;5.83;2.30;;;;;18.70;101629.00;;;;4890166;29;20619;-68
2022/06/28 08:17:41;;;;;;;6.53;2.10;;;;;18.90;101630.00;;;;4888446;29;20723;-70
2022/06/28 08:20:31;;;;;;;4.73;2.03;;;;;19.00;101628.00;;;;4889640;29;20294;-71
2022/06/28 08:23:18;;;;;;;2.03;1.83;;;;;19.10;101622.00;;;;4890679;29;20847;-69
2022/06/28 08:26:05;;;;;;;10.90;2.47;;;;;19.20;101617.00;;;;4900036;29;20237;-68
2022/06/28 08:28:51;;;;;;;2.77;1.40;;;;;19.40;101624.00;;;;4901802;29;20607;-72
2022/06/28 08:31:37;;;;;;;3.77;2.10;;;;;19.50;101619.00;;;;4892553;29;20246;-69
2022/06/28 08:34:24;;;;;;;3.83;2.10;;;;;19.80;101614.00;;;;4899155;29;21300;-68
2022/06/28 08:37:10;;;;;;;6.90;2.00;;;;;20.00;101625.00;;;;4895108;29;20228;-71
2022/06/28 08:39:58;;;;;;;5.33;1.90;;;;;20.00;101627.00;;;;4898144;29;20234;-69
2022/06/28 08:42:49;;;;;;;5.67;2.43;;;;;20.00;101616.00;;;;4900352;29;20249;-67
2022/06/28 08:45:36;;;;;;;3.83;2.00;;;;;20.10;101606.00;;;;4907069;29;20262;-67
2022/06/28 08:48:26;;;;;;;3.47;2.00;;;;;20.30;101609.00;;;;4909169;29;20233;-67
2022/06/28 08:51:12;;;;;;;2.87;2.00;;;;;20.30;101618.00;;;;4913857;28;21103;-69
2022/06/28 08:54:01;;;;;;;5.20;1.87;;;;;20.40;101615.00;;;;4911634;29;20242;-70
2022/06/28 08:56:49;;;;;;;2.80;2.00;;;;;20.60;101607.00;;;;4902459;29;20262;-64
2022/06/28 08:59:36;;;;;;;3.07;1.73;;;;;20.70;101615.00;;;;4910520;29;20290;-68
2022/06/28 09:02:23;;;;;;;2.77;2.00;;;;;20.80;101612.00;;;;4899951;29;20347;-73
2022/06/28 09:05:10;;;;;;;4.40;2.10;;;;;21.00;101614.00;;;;4898269;29;20602;-69
2022/06/28 09:07:57;;;;;;;2.77;2.00;;;;;21.20;101614.00;;;;4900037;29;20605;-68
2022/06/28 09:10:45;;;;;;;7.47;2.50;;;;;21.20;101607.00;;;;4898576;29;20246;-68
2022/06/28 09:13:38;;;;;;;6.43;2.80;;;;;21.20;101603.00;;;;4909109;29;20233;-68
2022/06/28 09:16:24;;;;;;;2.63;1.93;;;;;21.30;101607.00;;;;4910056;29;20647;-68
2022/06/28 09:19:12;;;;;;;4.70;2.00;;;;;21.40;101600.00;;;;4900935;29;20237;-65
2022/06/28 09:21:58;;;;;;;5.97;2.33;;;;;21.60;101600.00;;;;4907494;29;20331;-69
2022/06/28 09:24:45;;;;;;;4.03;2.30;;;;;21.70;101605.00;;;;4901141;29;20241;-68
2022/06/28 09:27:34;;;;;;;5.30;1.90;;;;;22.00;101605.00;;;;4903587;29;20319;-69
2022/06/28 09:30:22;;;;;;;4.53;2.13;;;;;22.20;101607.00;;;;4892615;29;20234;-68
2022/06/28 09:33:26;;;;;;;3.90;2.30;;;;;22.50;101615.00;;;;4897751;29;20242;-68
2022/06/28 09:36:13;;;;;;;4.63;2.50;;;;;22.60;101608.00;;;;4895469;29;20238;-70
2022/06/28 09:39:10;;;;;;;6.03;2.23;;;;;22.70;101602.00;;;;4895167;29;20312;-69
2022/06/28 09:41:57;;;;;;;2.00;1.80;;;;;22.80;101600.00;;;;4893742;29;20238;-68
2022/06/28 09:45:02;;;;;;;2.87;1.93;;;;;22.90;101606.00;;;;4908176;29;20731;-68
2022/06/28 09:47:50;;;;;;;6.93;1.93;;;;;22.90;101597.00;;;;4909411;29;20239;-71
2022/06/28 09:50:59;;;;;;;2.87;2.27;;;;;22.90;101600.00;;;;4900481;29;20237;-69
2022/06/28 09:53:46;;;;;;;4.53;2.30;;;;;23.20;101594.00;;;;4908902;29;20323;-69
2022/06/28 09:56:55;;;;;;;2.33;1.80;;;;;23.30;101589.00;;;;4906623;29;20239;-70
2022/06/28 09:59:42;;;;;;;1.63;1.50;;;;;23.50;101593.00;;;;4927150;28;20239;-65
2022/06/28 10:02:28;;;;;;;5.30;1.80;;;;;23.50;101599.00;;;;4925528;28;20237;-71
2022/06/28 10:05:16;;;;;;;2.20;1.40;;;;;23.80;101589.00;;;;4925304;28;20781;-71
2022/06/28 10:08:03;;;;;;;3.07;1.40;;;;;23.90;101587.00;;;;4928449;28;20372;-70
2022/06/28 10:10:50;;;;;;;2.60;1.50;;;;;23.90;101593.00;;;;4922769;28;20234;-71
2022/06/28 10:17:22;;;;;;;1.67;1.50;;;;;24.10;101592.00;;;;4918318;28;20244;-68
2022/06/28 10:20:11;;;;;;;3.60;1.37;;;;;24.40;101594.00;;;;4923655;29;20379;-70
2022/06/28 10:23:27;;;;;;;2.70;1.63;;;;;24.50;101596.00;;;;4924026;29;20297;-70
2022/06/28 10:26:20;;;;;;;3.97;1.77;;;;;24.50;101586.00;;;;4923855;29;20249;-72
2022/06/28 10:29:09;;;;;;;2.83;2.00;;;;;24.50;101592.00;;;;4917180;29;20738;-72
2022/06/28 10:31:55;;;;;;;2.63;1.97;;;;;24.70;101585.00;;;;4926955;29;20248;-67
2022/06/28 10:34:51;;;;;;;3.23;1.63;;;;;24.80;101580.00;;;;4928734;29;20742;-71
2022/06/28 10:38:18;;;;;;;2.27;1.50;;;;;24.80;101575.00;;;;4935569;29;20224;-72
2022/06/28 10:41:18;;;;;;;2.70;1.60;;;;;24.90;101576.00;;;;4919270;29;20263;-73
2022/06/28 10:44:09;;;;;;;1.83;1.60;;;;;24.90;101572.00;;;;4926880;29;20255;-74
2022/06/28 10:47:12;;;;;;;3.47;1.60;;;;;24.90;101569.00;;;;4930185;29;20233;-71
2022/06/28 10:50:00;;;;;;;4.77;1.80;;;;;24.70;101574.00;;;;4933726;29;20240;-70
2022/06/28 10:53:01;;;;;;;5.73;1.63;;;;;24.90;101570.00;;;;4935873;28;20281;-72
2022/06/28 10:56:17;;;;;;;2.77;2.00;;;;;24.80;101559.00;;;;4936348;29;20261;-71
2022/06/28 10:59:08;;;;;;;2.70;1.63;;;;;24.50;101573.00;;;;4920054;29;20610;-70
2022/06/28 11:01:57;;;;;;;3.03;1.80;;;;;24.60;101570.00;;;;4907446;29;20249;-69
2022/06/28 11:04:44;;;;;;;7.17;2.50;;;;;25.00;101560.00;;;;4926178;29;20777;-71
2022/06/28 11:07:31;;;;;;;8.50;3.90;;;;;25.20;101563.00;;;;4924805;29;20970;-69
2022/06/28 11:10:18;;;;;;;3.80;2.50;;;;;25.40;101559.00;;;;4927086;29;20244;-71
2022/06/28 11:13:21;;;;;;;3.30;2.57;;;;;25.50;101551.00;;;;4925127;29;20253;-68
2022/06/28 11:16:11;;;;;;;3.97;2.90;;;;;25.80;101554.00;;;;4917650;29;20244;-72
2022/06/28 11:19:04;;;;;;;3.07;2.77;;;;;25.10;101550.00;;;;4927587;29;20233;-71
2022/06/28 11:21:54;;;;;;;4.30;2.80;;;;;24.80;101548.00;;;;4926929;29;20233;-72
2022/06/28 11:24:44;;;;;;;2.70;2.50;;;;;25.20;101541.00;;;;4930163;28;20241;-76
2022/06/28 11:27:32;;;;;;;3.77;2.90;;;;;24.90;101541.00;;;;4923230;29;20313;-68
2022/06/28 11:30:23;;;;;;;2.77;2.30;;;;;24.80;101542.00;;;;4919650;29;20244;-71
2022/06/28 11:33:11;;;;;;;3.37;2.40;;;;;24.40;101543.00;;;;4927233;28;20233;-69
2022/06/28 11:36:00;;;;;;;5.60;2.50;;;;;24.10;101546.00;;;;4922483;29;20236;-69
2022/06/28 11:38:46;;;;;;;3.30;2.57;;;;;23.80;101546.00;;;;4930290;29;20734;-72
2022/06/28 11:41:33;;;;;;;4.33;2.40;;;;;23.90;101540.00;;;;4924177;29;20279;-68
2022/06/28 11:44:20;;;;;;;2.80;2.50;;;;;24.70;101537.00;;;;4922420;29;20240;-68
2022/06/28 11:47:10;;;;;;;5.77;2.47;;;;;24.80;101539.00;;;;4917933;29;20289;-69
2022/06/28 11:50:16;;;;;;;4.67;2.27;;;;;25.40;101537.00;;;;4921349;29;20235;-67
2022/06/28 11:53:02;;;;;;;4.07;2.40;;;;;25.60;101532.00;;;;4922308;29;20722;-68
2022/06/28 11:55:50;;;;;;;2.43;2.20;;;;;26.10;101528.00;;;;4923661;29;20302;-69
2022/06/28 11:58:38;;;;;;;4.03;2.87;;;;;26.10;101533.00;;;;4909083;29;20845;-68
2022/06/28 12:01:26;;;;;;;2.40;2.20;;;;;26.50;101533.00;;;;4897765;29;20314;-73
2022/06/28 12:04:20;;;;;;;6.33;2.97;;;;;26.40;101531.00;;;;4901881;29;20245;-72
2022/06/28 12:07:07;;;;;;;3.70;2.60;;;;;26.60;101530.00;;;;4892308;29;20795;-67
2022/06/28 12:09:54;;;;;;;3.63;2.33;;;;;26.20;101528.00;;;;4895508;29;20961;-65
2022/06/28 12:12:44;;;;;;;5.13;2.30;;;;;25.60;101528.00;;;;4902764;29;20265;-70
2022/06/28 12:15:32;;;;;;;3.50;2.50;;;;;26.10;101523.00;;;;4900836;29;20242;-68
2022/06/28 12:18:19;;;;;;;6.13;2.57;;;;;26.20;101530.00;;;;4904915;29;20358;-69
2022/06/28 12:21:13;;;;;;;2.30;2.10;;;;;26.10;101516.00;;;;4900262;28;20249;-70
2022/06/28 12:24:01;;;;;;;5.97;2.80;;;;;26.50;101517.00;;;;4910478;28;20358;-67
2022/06/28 12:26:47;;;;;;;4.60;2.40;;;;;26.90;101511.00;;;;4916098;28;20240;-70
2022/06/28 12:29:33;;;;;;;3.67;2.03;;;;;27.30;101511.00;;;;4904359;29;20242;-66
2022/06/28 12:32:20;;;;;;;4.07;2.37;;;;;27.40;101517.00;;;;4911605;29;20297;-67
2022/06/28 12:35:26;;;;;;;4.30;2.70;;;;;27.50;101508.00;;;;4910270;29;20234;-69
2022/06/28 12:38:14;;;;;;;9.73;6.07;;;;;27.70;101508.00;;;;4912019;29;20257;-70
2022/06/28 12:41:00;;;;;;;3.37;2.43;;;;;28.00;101504.00;;;;4911898;29;20240;-69
2022/06/28 12:43:47;;;;;;;2.37;2.17;;;;;28.10;101496.00;;;;4929553;29;20407;-69
2022/06/28 12:46:33;;;;;;;2.45;2.25;;;;;28.10;101494.00;;;;4929793;29;20248;-69
2022/06/28 12:49:20;;;;;;;2.63;1.87;;;;;28.30;101494.00;;;;4929003;29;20855;-71
2022/06/28 12:52:06;;;;;;;2.97;1.90;;;;;28.40;101501.00;;;;4926360;29;20334;-72
2022/06/28 12:54:54;;;;;;;3.33;2.10;;;;;28.50;101497.00;;;;4923420;29;20813;-73
2022/06/28 12:57:41;;;;;;;5.35;2.38;;;;;28.60;101498.00;;;;4928740;29;20247;-72
2022/06/28 13:00:28;;;;;;;3.15;2.13;;;;;28.30;101485.00;;;;4928566;29;20236;-68
2022/06/28 13:03:14;;;;;;;3.40;2.20;;;;;28.20;101486.00;;;;4925014;29;20915;-64
2022/06/28 13:06:00;;;;;;;3.28;2.10;;;;;28.50;101487.00;;;;4921976;29;20385;-72
2022/06/28 13:08:47;;;;;;;3.53;2.28;;;;;28.50;101478.00;;;;4927906;29;20593;-69
2022/06/28 13:11:34;;;;;;;2.22;2.00;;;;;28.60;101482.00;;;;4926881;29;20791;-67
2022/06/28 13:14:21;;;;;;;2.53;1.80;;;;;28.30;101475.00;;;;4929593;29;20628;-68
2022/06/28 13:17:08;;;;;;;3.90;2.10;;;;;28.50;101465.00;;;;4929412;29;20264;-69
2022/06/28 13:19:54;;;;;;;1.98;1.70;;;;;28.10;101466.00;;;;4928573;29;20326;-69
2022/06/28 13:23:00;;;;;;;3.00;1.88;;;;;27.80;101457.00;;;;4928669;29;20241;-70
2022/06/28 13:25:47;;;;;;;2.53;2.08;;;;;28.10;101461.00;;;;4928382;29;20245;-69
2022/06/28 13:28:34;;;;;;;3.90;2.10;;;;;28.40;101446.00;;;;4929216;29;20750;-68
2022/06/28 13:31:21;;;;;;;4.25;2.00;;;;;28.70;101451.00;;;;4930475;29;20847;-65
2022/06/28 13:34:08;;;;;;;4.35;1.90;;;;;29.10;101447.00;;;;4926056;29;20241;-70
2022/06/28 13:36:54;;;;;;;2.80;1.98;;;;;29.20;101444.00;;;;4927115;29;20260;-71
2022/06/28 13:39:40;;;;;;;2.05;1.85;;;;;29.60;101453.00;;;;4930023;29;20229;-70
2022/06/28 13:42:27;;;;;;;2.00;1.60;;;;;29.40;101438.00;;;;4928243;29;20786;-70
2022/06/28 13:45:15;;;;;;;3.28;1.90;;;;;29.80;101450.00;;;;4897535;29;20242;-72
2022/06/28 13:48:01;;;;;;;5.47;2.38;;;;;29.20;101448.00;;;;4910742;29;20245;-69
2022/06/28 13:50:48;;;;;;;2.38;2.03;;;;;28.60;101453.00;;;;4895111;29;20237;-70
2022/06/28 13:53:36;;;;;;;2.78;2.40;;;;;28.10;101458.00;;;;4905069;29;20409;-71
2022/06/28 13:56:22;;;;;;;5.93;2.17;;;;;27.60;101451.00;;;;4915454;29;20237;-71
2022/06/28 13:59:09;;;;;;;2.60;2.00;;;;;27.20;101443.00;;;;4910270;28;20354;-69
2022/06/28 14:01:56;;;;;;;7.15;3.10;;;;;26.90;101444.00;;;;4908471;29;21395;-69
2022/06/28 14:04:43;;;;;;;5.70;2.75;;;;;26.70;101437.00;;;;4927700;29;20314;-69
2022/06/28 14:07:29;;;;;;;2.72;2.00;;;;;26.60;101444.00;;;;4926232;29;20264;-70